sensor_id;sensor_type;location;lat;lon;timestamp;temperature;humidity
20035;DHT22;10178;48.034;9.800;2023-11-18T00:02:00;4.20;99.90
20035;DHT22;10178;48.034;9.800;2023-11-18T00:04:26;4.20;99.90
20035;DHT22;10178;48.034;9.800;2023-11-18T00:06:51;4.00;99.90
20035;DHT22;10178;48.034;9.800;2023-11-18T00:09:17;3.90;99.90
20035;DHT22;10178;48.034;9.800;2023-11-18T00:11:43;3.90;99.90
20035;DHT22;10178;48.034;9.800;2023-11-18T00:14:09;4.00;99.90
20035;DHT22;10178;48.034;9.800;2023-11-18T00:16:38;4.00;99.90
20035;DHT22;10178;48.034;9.800;2023-11-18T00:19:04;4.10;99.90
20035;DHT22;10178;48.034;9.800;2023-11-18T00:21:34;4.00;99.90
20035;DHT22;10178;48.034;9.800;2023-11-18T00:24:01;4.10;99.90
20035;DHT22;10178;48.034;9.800;2023-11-18T00:26:27;4.50;99.90
20035;DHT22;10178;48.034;9.800;2023-11-18T00:28:53;4.50;99.90
20035;DHT22;10178;48.034;9.800;2023-11-18T00:31:18;4.90;99.90
20035;DHT22;10178;48.034;9.800;2023-11-18T00:33:44;5.20;99.90
20035;DHT22;10178;48.034;9.800;2023-11-18T00:36:10;5.60;99.90
20035;DHT22;10178;48.034;9.800;2023-11-18T00:38:36;5.80;99.90
20035;DHT22;10178;48.034;9.800;2023-11-18T00:41:01;6.10;99.90
20035;DHT22;10178;48.034;9.800;2023-11-18T00:43:27;6.20;99.90
20035;DHT22;10178;48.034;9.800;2023-11-18T00:45:52;6.30;99.90
20035;DHT22;10178;48.034;9.800;2023-11-18T00:48:18;6.40;99.90
20035;DHT22;10178;48.034;9.800;2023-11-18T00:50:44;5.60;99.90
20035;DHT22;10178;48.034;9.800;2023-11-18T00:53:09;4.90;99.90
20035;DHT22;10178;48.034;9.800;2023-11-18T00:55:35;4.50;99.90
20035;DHT22;10178;48.034;9.800;2023-11-18T00:58:01;4.50;99.90
20035;DHT22;10178;48.034;9.800;2023-11-18T01:00:27;4.30;99.90
20035;DHT22;10178;48.034;9.800;2023-11-18T01:02:53;4.20;99.90
20035;DHT22;10178;48.034;9.800;2023-11-18T01:05:20;4.00;99.90
20035;DHT22;10178;48.034;9.800;2023-11-18T01:07:46;3.80;99.90
20035;DHT22;10178;48.034;9.800;2023-11-18T01:10:12;3.80;99.90
20035;DHT22;10178;48.034;9.800;2023-11-18T01:12:39;3.70;99.90
20035;DHT22;10178;48.034;9.800;2023-11-18T01:15:05;3.70;99.90
20035;DHT22;10178;48.034;9.800;2023-11-18T01:17:32;3.70;99.90
20035;DHT22;10178;48.034;9.800;2023-11-18T01:19:58;3.80;99.90
20035;DHT22;10178;48.034;9.800;2023-11-18T01:22:24;3.90;99.90
20035;DHT22;10178;48.034;9.800;2023-11-18T01:24:50;3.90;99.90
20035;DHT22;10178;48.034;9.800;2023-11-18T01:27:18;3.90;99.90
20035;DHT22;10178;48.034;9.800;2023-11-18T01:29:45;4.30;99.90
20035;DHT22;10178;48.034;9.800;2023-11-18T01:32:12;4.70;99.90
20035;DHT22;10178;48.034;9.800;2023-11-18T01:34:39;5.00;99.90
20035;DHT22;10178;48.034;9.800;2023-11-18T01:37:06;5.40;99.90
20035;DHT22;10178;48.034;9.800;2023-11-18T01:39:33;5.60;99.90
20035;DHT22;10178;48.034;9.800;2023-11-18T01:41:59;5.90;99.90
20035;DHT22;10178;48.034;9.800;2023-11-18T01:44:25;6.10;99.90
20035;DHT22;10178;48.034;9.800;2023-11-18T01:46:56;6.20;99.90
20035;DHT22;10178;48.034;9.800;2023-11-18T01:49:24;6.20;99.90
20035;DHT22;10178;48.034;9.800;2023-11-18T01:51:53;6.30;99.90
20035;DHT22;10178;48.034;9.800;2023-11-18T01:54:19;5.90;99.90
20035;DHT22;10178;48.034;9.800;2023-11-18T01:56:49;5.60;99.90
20035;DHT22;10178;48.034;9.800;2023-11-18T01:59:15;5.70;99.90
20035;DHT22;10178;48.034;9.800;2023-11-18T02:01:47;5.40;99.90
20035;DHT22;10178;48.034;9.800;2023-11-18T02:04:14;5.10;99.90
20035;DHT22;10178;48.034;9.800;2023-11-18T02:06:42;5.10;99.90
20035;DHT22;10178;48.034;9.800;2023-11-18T02:09:08;5.10;99.90
20035;DHT22;10178;48.034;9.800;2023-11-18T02:11:41;5.50;99.90
20035;DHT22;10178;48.034;9.800;2023-11-18T02:14:13;5.70;99.90
20035;DHT22;10178;48.034;9.800;2023-11-18T02:16:42;5.60;99.90
20035;DHT22;10178;48.034;9.800;2023-11-18T02:19:20;5.50;99.90
20035;DHT22;10178;48.034;9.800;2023-11-18T02:21:47;5.60;99.90
20035;DHT22;10178;48.034;9.800;2023-11-18T02:24:29;5.60;99.90
20035;DHT22;10178;48.034;9.800;2023-11-18T02:27:00;5.40;99.90
20035;DHT22;10178;48.034;9.800;2023-11-18T02:29:34;5.50;99.90
20035;DHT22;10178;48.034;9.800;2023-11-18T02:32:25;5.70;99.90
20035;DHT22;10178;48.034;9.800;2023-11-18T02:37:37;5.70;99.90
20035;DHT22;10178;48.034;9.800;2023-11-18T02:40:04;5.90;99.90
20035;DHT22;10178;48.034;9.800;2023-11-18T02:42:38;6.00;99.90
20035;DHT22;10178;48.034;9.800;2023-11-18T02:45:06;6.10;99.90
20035;DHT22;10178;48.034;9.800;2023-11-18T02:47:33;6.00;99.90
20035;DHT22;10178;48.034;9.800;2023-11-18T02:49:59;5.90;99.90
20035;DHT22;10178;48.034;9.800;2023-11-18T02:52:31;6.00;99.90
20035;DHT22;10178;48.034;9.800;2023-11-18T02:54:58;6.10;99.90
20035;DHT22;10178;48.034;9.800;2023-11-18T02:57:24;6.30;99.90
20035;DHT22;10178;48.034;9.800;2023-11-18T02:59:49;6.40;99.90
20035;DHT22;10178;48.034;9.800;2023-11-18T03:02:15;6.40;99.90
20035;DHT22;10178;48.034;9.800;2023-11-18T03:04:40;6.10;99.90
20035;DHT22;10178;48.034;9.800;2023-11-18T03:07:08;6.00;99.90
20035;DHT22;10178;48.034;9.800;2023-11-18T03:09:33;5.60;99.90
20035;DHT22;10178;48.034;9.800;2023-11-18T03:12:00;5.60;99.90
20035;DHT22;10178;48.034;9.800;2023-11-18T03:14:26;5.70;99.90
20035;DHT22;10178;48.034;9.800;2023-11-18T03:16:51;5.80;99.90
20035;DHT22;10178;48.034;9.800;2023-11-18T03:19:17;5.90;99.90
20035;DHT22;10178;48.034;9.800;2023-11-18T03:21:44;5.90;99.90
20035;DHT22;10178;48.034;9.800;2023-11-18T03:24:15;6.10;99.90
20035;DHT22;10178;48.034;9.800;2023-11-18T03:26:41;6.20;99.90
20035;DHT22;10178;48.034;9.800;2023-11-18T03:29:07;6.30;99.90
20035;DHT22;10178;48.034;9.800;2023-11-18T03:31:32;6.40;99.90
20035;DHT22;10178;48.034;9.800;2023-11-18T03:33:58;6.50;99.90
20035;DHT22;10178;48.034;9.800;2023-11-18T03:36:24;6.50;99.90
20035;DHT22;10178;48.034;9.800;2023-11-18T03:38:50;6.60;99.90
20035;DHT22;10178;48.034;9.800;2023-11-18T03:41:16;6.60;99.90
20035;DHT22;10178;48.034;9.800;2023-11-18T03:43:41;6.70;99.90
20035;DHT22;10178;48.034;9.800;2023-11-18T03:46:07;6.60;99.90
20035;DHT22;10178;48.034;9.800;2023-11-18T03:48:32;6.60;99.90
20035;DHT22;10178;48.034;9.800;2023-11-18T03:50:58;6.60;99.90
20035;DHT22;10178;48.034;9.800;2023-11-18T03:53:24;6.60;99.90
20035;DHT22;10178;48.034;9.800;2023-11-18T03:55:49;6.60;99.90
20035;DHT22;10178;48.034;9.800;2023-11-18T03:58:17;6.60;99.90
20035;DHT22;10178;48.034;9.800;2023-11-18T04:00:42;6.50;99.90
20035;DHT22;10178;48.034;9.800;2023-11-18T04:03:08;6.30;99.90
20035;DHT22;10178;48.034;9.800;2023-11-18T04:05:35;6.00;99.90
20035;DHT22;10178;48.034;9.800;2023-11-18T04:08:01;6.10;99.90
20035;DHT22;10178;48.034;9.800;2023-11-18T04:10:27;6.10;99.90
20035;DHT22;10178;48.034;9.800;2023-11-18T04:12:52;6.00;99.90
20035;DHT22;10178;48.034;9.800;2023-11-18T04:15:18;6.10;99.90
20035;DHT22;10178;48.034;9.800;2023-11-18T04:17:43;6.20;99.90
20035;DHT22;10178;48.034;9.800;2023-11-18T04:20:10;5.90;99.90
20035;DHT22;10178;48.034;9.800;2023-11-18T04:22:40;5.70;99.90
20035;DHT22;10178;48.034;9.800;2023-11-18T04:25:08;5.40;99.90
20035;DHT22;10178;48.034;9.800;2023-11-18T04:27:33;5.50;99.90
20035;DHT22;10178;48.034;9.800;2023-11-18T04:29:59;5.80;99.90
20035;DHT22;10178;48.034;9.800;2023-11-18T04:32:24;5.80;99.90
20035;DHT22;10178;48.034;9.800;2023-11-18T04:34:50;5.90;99.90
20035;DHT22;10178;48.034;9.800;2023-11-18T04:37:16;6.00;99.90
20035;DHT22;10178;48.034;9.800;2023-11-18T04:39:43;5.80;99.90
20035;DHT22;10178;48.034;9.800;2023-11-18T04:42:08;5.70;99.90
20035;DHT22;10178;48.034;9.800;2023-11-18T04:44:34;5.50;99.90
20035;DHT22;10178;48.034;9.800;2023-11-18T04:46:59;5.50;99.90
20035;DHT22;10178;48.034;9.800;2023-11-18T04:49:26;5.70;99.90
20035;DHT22;10178;48.034;9.800;2023-11-18T04:51:52;5.90;99.90
20035;DHT22;10178;48.034;9.800;2023-11-18T04:54:17;6.00;99.90
20035;DHT22;10178;48.034;9.800;2023-11-18T04:56:44;6.20;99.90
20035;DHT22;10178;48.034;9.800;2023-11-18T04:59:10;6.20;99.90
20035;DHT22;10178;48.034;9.800;2023-11-18T05:01:36;6.10;99.90
20035;DHT22;10178;48.034;9.800;2023-11-18T05:04:03;6.30;99.90
20035;DHT22;10178;48.034;9.800;2023-11-18T05:06:29;6.40;99.90
20035;DHT22;10178;48.034;9.800;2023-11-18T05:08:54;6.50;99.90
20035;DHT22;10178;48.034;9.800;2023-11-18T05:11:20;6.50;99.90
20035;DHT22;10178;48.034;9.800;2023-11-18T05:13:46;6.60;99.90
20035;DHT22;10178;48.034;9.800;2023-11-18T05:16:11;6.50;99.90
20035;DHT22;10178;48.034;9.800;2023-11-18T05:18:37;6.50;99.90
20035;DHT22;10178;48.034;9.800;2023-11-18T05:21:04;6.50;99.90
20035;DHT22;10178;48.034;9.800;2023-11-18T05:23:31;6.50;99.90
20035;DHT22;10178;48.034;9.800;2023-11-18T05:25:57;6.50;99.90
20035;DHT22;10178;48.034;9.800;2023-11-18T05:28:24;6.60;99.90
20035;DHT22;10178;48.034;9.800;2023-11-18T05:30:50;6.40;99.90
20035;DHT22;10178;48.034;9.800;2023-11-18T05:33:16;6.00;99.90
20035;DHT22;10178;48.034;9.800;2023-11-18T05:35:46;5.80;99.90
20035;DHT22;10178;48.034;9.800;2023-11-18T05:38:20;5.70;99.90
20035;DHT22;10178;48.034;9.800;2023-11-18T05:40:50;5.30;99.90
20035;DHT22;10178;48.034;9.800;2023-11-18T05:43:29;4.70;99.90
20035;DHT22;10178;48.034;9.800;2023-11-18T05:46:04;4.50;99.90
20035;DHT22;10178;48.034;9.800;2023-11-18T05:48:50;4.50;99.90
20035;DHT22;10178;48.034;9.800;2023-11-18T05:51:23;4.60;99.90
20035;DHT22;10178;48.034;9.800;2023-11-18T05:53:50;4.50;99.90
20035;DHT22;10178;48.034;9.800;2023-11-18T05:56:16;4.20;99.90
20035;DHT22;10178;48.034;9.800;2023-11-18T05:58:42;4.20;99.90
20035;DHT22;10178;48.034;9.800;2023-11-18T06:01:12;4.40;99.90
20035;DHT22;10178;48.034;9.800;2023-11-18T06:03:42;4.60;99.90
20035;DHT22;10178;48.034;9.800;2023-11-18T06:06:09;4.60;99.90
20035;DHT22;10178;48.034;9.800;2023-11-18T06:08:36;4.60;99.90
20035;DHT22;10178;48.034;9.800;2023-11-18T06:11:04;4.90;99.90
20035;DHT22;10178;48.034;9.800;2023-11-18T06:13:48;4.60;99.90
20035;DHT22;10178;48.034;9.800;2023-11-18T06:16:32;4.40;99.90
20035;DHT22;10178;48.034;9.800;2023-11-18T06:18:57;4.10;99.90
20035;DHT22;10178;48.034;9.800;2023-11-18T06:21:25;4.30;99.90
20035;DHT22;10178;48.034;9.800;2023-11-18T06:23:54;4.30;99.90
20035;DHT22;10178;48.034;9.800;2023-11-18T06:26:23;4.10;99.90
20035;DHT22;10178;48.034;9.800;2023-11-18T06:28:53;4.10;99.90
20035;DHT22;10178;48.034;9.800;2023-11-18T06:31:19;4.10;99.90
20035;DHT22;10178;48.034;9.800;2023-11-18T06:33:46;4.00;99.90
20035;DHT22;10178;48.034;9.800;2023-11-18T06:38:42;4.20;99.90
20035;DHT22;10178;48.034;9.800;2023-11-18T06:41:09;4.00;99.90
20035;DHT22;10178;48.034;9.800;2023-11-18T06:43:40;4.00;99.90
20035;DHT22;10178;48.034;9.800;2023-11-18T06:46:27;4.10;99.90
20035;DHT22;10178;48.034;9.800;2023-11-18T06:48:57;4.40;99.90
20035;DHT22;10178;48.034;9.800;2023-11-18T06:51:26;4.80;99.90
20035;DHT22;10178;48.034;9.800;2023-11-18T06:53:56;4.60;99.90
20035;DHT22;10178;48.034;9.800;2023-11-18T06:56:25;4.50;99.90
20035;DHT22;10178;48.034;9.800;2023-11-18T06:58:51;4.50;99.90
20035;DHT22;10178;48.034;9.800;2023-11-18T07:01:17;5.00;99.90
20035;DHT22;10178;48.034;9.800;2023-11-18T07:03:47;5.30;99.90
20035;DHT22;10178;48.034;9.800;2023-11-18T07:06:20;5.60;99.90
20035;DHT22;10178;48.034;9.800;2023-11-18T07:08:49;5.90;99.90
20035;DHT22;10178;48.034;9.800;2023-11-18T07:11:15;6.00;99.90
20035;DHT22;10178;48.034;9.800;2023-11-18T07:13:42;6.10;99.90
20035;DHT22;10178;48.034;9.800;2023-11-18T07:16:08;6.10;99.90
20035;DHT22;10178;48.034;9.800;2023-11-18T07:18:35;6.00;99.90
20035;DHT22;10178;48.034;9.800;2023-11-18T07:21:01;6.00;99.90
20035;DHT22;10178;48.034;9.800;2023-11-18T07:23:28;5.90;99.90
20035;DHT22;10178;48.034;9.800;2023-11-18T07:25:54;5.90;99.90
20035;DHT22;10178;48.034;9.800;2023-11-18T07:28:22;6.00;99.90
20035;DHT22;10178;48.034;9.800;2023-11-18T07:30:48;5.80;99.90
20035;DHT22;10178;48.034;9.800;2023-11-18T07:33:17;6.00;99.90
20035;DHT22;10178;48.034;9.800;2023-11-18T07:35:44;6.00;99.90
20035;DHT22;10178;48.034;9.800;2023-11-18T07:38:12;5.80;99.90
20035;DHT22;10178;48.034;9.800;2023-11-18T07:40:38;5.70;99.90
20035;DHT22;10178;48.034;9.800;2023-11-18T07:43:08;5.60;99.90
20035;DHT22;10178;48.034;9.800;2023-11-18T07:45:38;5.50;99.90
20035;DHT22;10178;48.034;9.800;2023-11-18T07:48:08;5.70;99.90
20035;DHT22;10178;48.034;9.800;2023-11-18T07:50:37;6.00;99.90
20035;DHT22;10178;48.034;9.800;2023-11-18T07:53:04;6.20;99.90
20035;DHT22;10178;48.034;9.800;2023-11-18T07:55:32;6.10;99.90
20035;DHT22;10178;48.034;9.800;2023-11-18T07:58:08;6.00;99.90
20035;DHT22;10178;48.034;9.800;2023-11-18T08:00:42;6.20;99.90
20035;DHT22;10178;48.034;9.800;2023-11-18T08:03:10;6.00;99.90
20035;DHT22;10178;48.034;9.800;2023-11-18T08:08:59;5.50;99.90
20035;DHT22;10178;48.034;9.800;2023-11-18T08:11:25;5.70;99.90
20035;DHT22;10178;48.034;9.800;2023-11-18T08:13:50;5.80;99.90
20035;DHT22;10178;48.034;9.800;2023-11-18T08:16:16;6.20;99.90
20035;DHT22;10178;48.034;9.800;2023-11-18T08:18:48;6.20;99.90
20035;DHT22;10178;48.034;9.800;2023-11-18T08:21:14;5.90;99.90
20035;DHT22;10178;48.034;9.800;2023-11-18T08:23:40;6.00;99.90
20035;DHT22;10178;48.034;9.800;2023-11-18T08:26:05;6.20;99.90
20035;DHT22;10178;48.034;9.800;2023-11-18T08:28:31;6.00;99.90
20035;DHT22;10178;48.034;9.800;2023-11-18T08:30:57;5.90;99.90
20035;DHT22;10178;48.034;9.800;2023-11-18T08:33:22;6.10;99.90
20035;DHT22;10178;48.034;9.800;2023-11-18T08:35:51;6.30;99.90
20035;DHT22;10178;48.034;9.800;2023-11-18T08:38:16;6.30;99.90
20035;DHT22;10178;48.034;9.800;2023-11-18T08:40:43;6.30;99.90
20035;DHT22;10178;48.034;9.800;2023-11-18T08:43:10;6.40;99.90
20035;DHT22;10178;48.034;9.800;2023-11-18T08:45:36;6.50;99.90
20035;DHT22;10178;48.034;9.800;2023-11-18T08:48:03;6.70;99.90
20035;DHT22;10178;48.034;9.800;2023-11-18T08:50:34;6.60;99.90
20035;DHT22;10178;48.034;9.800;2023-11-18T08:53:00;6.70;99.90
20035;DHT22;10178;48.034;9.800;2023-11-18T08:55:30;6.80;99.90
20035;DHT22;10178;48.034;9.800;2023-11-18T08:58:07;6.80;99.90
20035;DHT22;10178;48.034;9.800;2023-11-18T09:00:49;6.60;99.90
20035;DHT22;10178;48.034;9.800;2023-11-18T09:03:23;6.70;99.90
20035;DHT22;10178;48.034;9.800;2023-11-18T09:06:00;6.70;99.90
20035;DHT22;10178;48.034;9.800;2023-11-18T09:08:37;6.80;99.90
20035;DHT22;10178;48.034;9.800;2023-11-18T09:11:10;6.70;99.90
20035;DHT22;10178;48.034;9.800;2023-11-18T09:13:37;6.50;99.90
20035;DHT22;10178;48.034;9.800;2023-11-18T09:16:07;6.40;99.90
20035;DHT22;10178;48.034;9.800;2023-11-18T09:18:38;6.50;99.90
20035;DHT22;10178;48.034;9.800;2023-11-18T09:21:04;6.60;99.90
20035;DHT22;10178;48.034;9.800;2023-11-18T09:23:35;6.70;99.90
20035;DHT22;10178;48.034;9.800;2023-11-18T09:26:01;6.70;99.90
20035;DHT22;10178;48.034;9.800;2023-11-18T09:28:29;6.60;99.90
20035;DHT22;10178;48.034;9.800;2023-11-18T09:30:55;6.70;99.90
20035;DHT22;10178;48.034;9.800;2023-11-18T09:33:24;6.80;99.90
20035;DHT22;10178;48.034;9.800;2023-11-18T09:36:13;6.80;99.90
20035;DHT22;10178;48.034;9.800;2023-11-18T09:38:40;6.80;99.90
20035;DHT22;10178;48.034;9.800;2023-11-18T09:41:07;6.80;99.90
20035;DHT22;10178;48.034;9.800;2023-11-18T09:43:37;6.80;99.90
20035;DHT22;10178;48.034;9.800;2023-11-18T09:46:16;6.90;99.90
20035;DHT22;10178;48.034;9.800;2023-11-18T09:48:43;6.70;99.90
20035;DHT22;10178;48.034;9.800;2023-11-18T09:51:20;6.40;99.90
20035;DHT22;10178;48.034;9.800;2023-11-18T09:54:12;6.50;99.90
20035;DHT22;10178;48.034;9.800;2023-11-18T10:02:52;6.70;99.90
20035;DHT22;10178;48.034;9.800;2023-11-18T10:05:19;7.00;99.90
20035;DHT22;10178;48.034;9.800;2023-11-18T10:07:52;6.90;99.90
20035;DHT22;10178;48.034;9.800;2023-11-18T10:10:18;6.90;99.90
20035;DHT22;10178;48.034;9.800;2023-11-18T10:12:50;6.90;99.90
20035;DHT22;10178;48.034;9.800;2023-11-18T10:15:23;6.70;99.90
20035;DHT22;10178;48.034;9.800;2023-11-18T10:17:51;6.80;99.90
20035;DHT22;10178;48.034;9.800;2023-11-18T10:20:45;6.90;99.90
20035;DHT22;10178;48.034;9.800;2023-11-18T10:23:13;6.90;99.90
20035;DHT22;10178;48.034;9.800;2023-11-18T10:28:41;7.10;99.90
20035;DHT22;10178;48.034;9.800;2023-11-18T10:31:08;6.80;99.90
20035;DHT22;10178;48.034;9.800;2023-11-18T10:33:38;6.70;99.90
20035;DHT22;10178;48.034;9.800;2023-11-18T10:36:17;6.70;99.90
20035;DHT22;10178;48.034;9.800;2023-11-18T10:38:48;6.50;99.90
20035;DHT22;10178;48.034;9.800;2023-11-18T10:41:15;6.60;99.90
20035;DHT22;10178;48.034;9.800;2023-11-18T10:43:44;6.60;99.90
20035;DHT22;10178;48.034;9.800;2023-11-18T10:46:13;6.60;99.90
20035;DHT22;10178;48.034;9.800;2023-11-18T10:48:41;6.60;99.90
20035;DHT22;10178;48.034;9.800;2023-11-18T10:51:10;6.70;99.90
20035;DHT22;10178;48.034;9.800;2023-11-18T10:53:43;6.80;99.90
20035;DHT22;10178;48.034;9.800;2023-11-18T10:56:27;6.90;99.90
20035;DHT22;10178;48.034;9.800;2023-11-18T10:59:05;7.00;99.90
20035;DHT22;10178;48.034;9.800;2023-11-18T11:01:32;7.10;99.90
20035;DHT22;10178;48.034;9.800;2023-11-18T11:03:58;7.10;99.90
20035;DHT22;10178;48.034;9.800;2023-11-18T11:06:26;7.00;99.90
20035;DHT22;10178;48.034;9.800;2023-11-18T11:08:56;7.10;99.90
20035;DHT22;10178;48.034;9.800;2023-11-18T11:11:25;7.20;99.90
20035;DHT22;10178;48.034;9.800;2023-11-18T11:13:59;7.40;99.90
20035;DHT22;10178;48.034;9.800;2023-11-18T11:16:40;7.50;99.90
20035;DHT22;10178;48.034;9.800;2023-11-18T11:22:10;7.60;99.90
20035;DHT22;10178;48.034;9.800;2023-11-18T11:30:00;7.50;99.90
20035;DHT22;10178;48.034;9.800;2023-11-18T11:32:43;7.40;99.90
20035;DHT22;10178;48.034;9.800;2023-11-18T11:35:18;7.40;99.90
20035;DHT22;10178;48.034;9.800;2023-11-18T11:37:47;7.40;99.90
20035;DHT22;10178;48.034;9.800;2023-11-18T11:40:14;7.30;99.90
20035;DHT22;10178;48.034;9.800;2023-11-18T11:42:49;7.40;99.90
20035;DHT22;10178;48.034;9.800;2023-11-18T11:45:22;7.50;99.90
20035;DHT22;10178;48.034;9.800;2023-11-18T11:47:51;7.50;99.90
20035;DHT22;10178;48.034;9.800;2023-11-18T11:50:22;7.50;99.90
20035;DHT22;10178;48.034;9.800;2023-11-18T11:53:03;7.50;99.90
20035;DHT22;10178;48.034;9.800;2023-11-18T11:55:45;7.50;99.90
20035;DHT22;10178;48.034;9.800;2023-11-18T11:58:30;7.60;99.90
20035;DHT22;10178;48.034;9.800;2023-11-18T12:01:15;7.60;99.90
20035;DHT22;10178;48.034;9.800;2023-11-18T12:03:43;7.50;99.90
20035;DHT22;10178;48.034;9.800;2023-11-18T12:06:19;7.60;99.90
20035;DHT22;10178;48.034;9.800;2023-11-18T12:08:51;7.60;99.90
20035;DHT22;10178;48.034;9.800;2023-11-18T12:11:18;7.60;99.90
20035;DHT22;10178;48.034;9.800;2023-11-18T12:14:06;7.60;99.90
20035;DHT22;10178;48.034;9.800;2023-11-18T12:17:05;7.60;99.90
20035;DHT22;10178;48.034;9.800;2023-11-18T12:19:43;7.60;99.90
20035;DHT22;10178;48.034;9.800;2023-11-18T12:22:16;7.50;99.90
20035;DHT22;10178;48.034;9.800;2023-11-18T12:35:24;7.60;99.90
20035;DHT22;10178;48.034;9.800;2023-11-18T12:41:01;7.60;99.90
20035;DHT22;10178;48.034;9.800;2023-11-18T12:46:52;7.10;99.90
20035;DHT22;10178;48.034;9.800;2023-11-18T12:49:19;7.00;99.90
20035;DHT22;10178;48.034;9.800;2023-11-18T12:51:55;6.90;99.90
20035;DHT22;10178;48.034;9.800;2023-11-18T12:54:26;7.00;99.90
20035;DHT22;10178;48.034;9.800;2023-11-18T12:56:57;7.20;99.90
20035;DHT22;10178;48.034;9.800;2023-11-18T12:59:26;7.20;99.90
20035;DHT22;10178;48.034;9.800;2023-11-18T13:01:52;7.30;99.90
20035;DHT22;10178;48.034;9.800;2023-11-18T13:04:22;7.40;99.90
20035;DHT22;10178;48.034;9.800;2023-11-18T13:06:50;7.40;99.90
20035;DHT22;10178;48.034;9.800;2023-11-18T13:09:17;7.50;99.90
20035;DHT22;10178;48.034;9.800;2023-11-18T13:11:58;7.50;99.90
20035;DHT22;10178;48.034;9.800;2023-11-18T13:14:28;7.50;99.90
20035;DHT22;10178;48.034;9.800;2023-11-18T13:17:02;7.50;99.90
20035;DHT22;10178;48.034;9.800;2023-11-18T13:19:31;7.50;99.90
20035;DHT22;10178;48.034;9.800;2023-11-18T13:22:08;7.50;99.90
20035;DHT22;10178;48.034;9.800;2023-11-18T13:24:38;7.50;99.90
20035;DHT22;10178;48.034;9.800;2023-11-18T13:27:09;7.50;99.90
20035;DHT22;10178;48.034;9.800;2023-11-18T13:29:36;7.60;99.90
20035;DHT22;10178;48.034;9.800;2023-11-18T13:32:12;7.50;99.90
20035;DHT22;10178;48.034;9.800;2023-11-18T13:34:39;7.40;99.90
20035;DHT22;10178;48.034;9.800;2023-11-18T13:37:08;7.30;99.90
20035;DHT22;10178;48.034;9.800;2023-11-18T13:39:34;7.30;99.90
20035;DHT22;10178;48.034;9.800;2023-11-18T13:44:45;7.20;99.90
20035;DHT22;10178;48.034;9.800;2023-11-18T13:47:12;7.30;99.90
20035;DHT22;10178;48.034;9.800;2023-11-18T13:49:39;7.40;99.90
20035;DHT22;10178;48.034;9.800;2023-11-18T13:52:08;7.40;99.90
20035;DHT22;10178;48.034;9.800;2023-11-18T13:54:36;7.50;99.90
20035;DHT22;10178;48.034;9.800;2023-11-18T13:57:03;7.50;99.90
20035;DHT22;10178;48.034;9.800;2023-11-18T13:59:29;7.50;99.90
20035;DHT22;10178;48.034;9.800;2023-11-18T14:01:56;7.60;99.90
20035;DHT22;10178;48.034;9.800;2023-11-18T14:04:27;7.60;99.90
20035;DHT22;10178;48.034;9.800;2023-11-18T14:06:57;7.50;99.90
20035;DHT22;10178;48.034;9.800;2023-11-18T14:09:22;7.50;99.90
20035;DHT22;10178;48.034;9.800;2023-11-18T14:11:52;7.50;99.90
20035;DHT22;10178;48.034;9.800;2023-11-18T14:14:21;7.60;99.90
20035;DHT22;10178;48.034;9.800;2023-11-18T14:16:46;7.60;99.90
20035;DHT22;10178;48.034;9.800;2023-11-18T14:19:12;7.60;99.90
20035;DHT22;10178;48.034;9.800;2023-11-18T14:21:39;7.40;99.90
20035;DHT22;10178;48.034;9.800;2023-11-18T14:24:07;7.40;99.90
20035;DHT22;10178;48.034;9.800;2023-11-18T14:26:33;7.50;99.90
20035;DHT22;10178;48.034;9.800;2023-11-18T14:28:59;7.50;99.90
20035;DHT22;10178;48.034;9.800;2023-11-18T14:31:25;7.40;99.90
20035;DHT22;10178;48.034;9.800;2023-11-18T14:33:51;7.30;99.90
20035;DHT22;10178;48.034;9.800;2023-11-18T14:36:18;7.10;99.90
20035;DHT22;10178;48.034;9.800;2023-11-18T14:38:44;7.00;99.90
20035;DHT22;10178;48.034;9.800;2023-11-18T14:41:10;7.00;99.90
20035;DHT22;10178;48.034;9.800;2023-11-18T14:43:36;7.00;99.90
20035;DHT22;10178;48.034;9.800;2023-11-18T14:46:02;6.80;99.90
20035;DHT22;10178;48.034;9.800;2023-11-18T14:48:29;6.70;99.90
20035;DHT22;10178;48.034;9.800;2023-11-18T14:50:55;6.60;99.90
20035;DHT22;10178;48.034;9.800;2023-11-18T14:53:22;6.70;99.90
20035;DHT22;10178;48.034;9.800;2023-11-18T14:55:48;6.50;99.90
20035;DHT22;10178;48.034;9.800;2023-11-18T14:58:13;6.40;99.90
20035;DHT22;10178;48.034;9.800;2023-11-18T15:00:39;6.40;99.90
20035;DHT22;10178;48.034;9.800;2023-11-18T15:03:05;6.30;99.90
20035;DHT22;10178;48.034;9.800;2023-11-18T15:05:31;6.60;99.90
20035;DHT22;10178;48.034;9.800;2023-11-18T15:07:57;6.60;99.90
20035;DHT22;10178;48.034;9.800;2023-11-18T15:10:27;6.80;99.90
20035;DHT22;10178;48.034;9.800;2023-11-18T15:12:57;7.00;99.90
20035;DHT22;10178;48.034;9.800;2023-11-18T15:15:32;7.00;99.90
20035;DHT22;10178;48.034;9.800;2023-11-18T15:18:00;7.00;99.90
20035;DHT22;10178;48.034;9.800;2023-11-18T15:20:29;6.70;99.90
20035;DHT22;10178;48.034;9.800;2023-11-18T15:22:55;7.00;99.90
20035;DHT22;10178;48.034;9.800;2023-11-18T15:25:21;6.70;99.90
20035;DHT22;10178;48.034;9.800;2023-11-18T15:27:47;7.10;99.90
20035;DHT22;10178;48.034;9.800;2023-11-18T15:30:16;7.60;99.90
20035;DHT22;10178;48.034;9.800;2023-11-18T15:32:43;7.90;99.90
20035;DHT22;10178;48.034;9.800;2023-11-18T15:35:10;8.10;99.90
20035;DHT22;10178;48.034;9.800;2023-11-18T15:37:40;7.80;99.90
20035;DHT22;10178;48.034;9.800;2023-11-18T15:40:14;7.90;99.90
20035;DHT22;10178;48.034;9.800;2023-11-18T15:42:45;8.10;99.90
20035;DHT22;10178;48.034;9.800;2023-11-18T15:45:23;7.60;99.90
20035;DHT22;10178;48.034;9.800;2023-11-18T15:47:50;7.80;99.90
20035;DHT22;10178;48.034;9.800;2023-11-18T15:50:16;7.80;99.90
20035;DHT22;10178;48.034;9.800;2023-11-18T15:52:46;7.60;99.90
20035;DHT22;10178;48.034;9.800;2023-11-18T15:55:13;7.60;99.90
20035;DHT22;10178;48.034;9.800;2023-11-18T15:57:46;7.70;99.90
20035;DHT22;10178;48.034;9.800;2023-11-18T16:00:19;8.10;99.90
20035;DHT22;10178;48.034;9.800;2023-11-18T16:02:51;7.90;99.90
20035;DHT22;10178;48.034;9.800;2023-11-18T16:05:27;7.20;99.90
20035;DHT22;10178;48.034;9.800;2023-11-18T16:07:55;7.10;99.90
20035;DHT22;10178;48.034;9.800;2023-11-18T16:10:22;7.00;99.90
20035;DHT22;10178;48.034;9.800;2023-11-18T16:15:17;6.90;99.90
20035;DHT22;10178;48.034;9.800;2023-11-18T16:17:45;7.40;99.90
20035;DHT22;10178;48.034;9.800;2023-11-18T16:20:11;7.40;99.90
20035;DHT22;10178;48.034;9.800;2023-11-18T16:22:44;7.30;99.90
20035;DHT22;10178;48.034;9.800;2023-11-18T16:25:23;7.10;99.90
20035;DHT22;10178;48.034;9.800;2023-11-18T16:27:53;7.20;99.90
20035;DHT22;10178;48.034;9.800;2023-11-18T16:30:20;7.40;99.90
20035;DHT22;10178;48.034;9.800;2023-11-18T16:32:55;7.00;99.90
20035;DHT22;10178;48.034;9.800;2023-11-18T16:35:22;6.80;99.90
20035;DHT22;10178;48.034;9.800;2023-11-18T16:37:48;6.90;99.90
20035;DHT22;10178;48.034;9.800;2023-11-18T16:40:15;6.80;99.90
20035;DHT22;10178;48.034;9.800;2023-11-18T16:42:42;6.60;99.90
20035;DHT22;10178;48.034;9.800;2023-11-18T16:45:09;6.50;99.90